aviador You're here:

KPUB Decoded Metar

PUEBLO MEMORIAL in CO, USA
Report Time2018-04-24 17:53:00
UTC Time2018-04-24 18:29:48
Flight Rules vfr VFR
Wind040° at 16 Gusting to 22 kt
W.Decomp.*RWY 35: 11.9 kt HW 10.7 kt RCW
RWY 08: 10.7 kt HW 11.9 kt LCW
W.Rank040° ranks 25
Current wind is above 040° avg. (8.8)
Visibility9999 m
Phenomena:N/A
Clouds:Overcast 046 Hf
Expected CloudBase > 3,200 ft AGL from Temp-Dew spread
Ceiling4,600 ft
Temp07°C (ISA +1)
Dew Point-1°C (57% RH)
AAT-0.9°C
QNH1029 hPa
Density Alt4,360 ft
Elevation4,659 ft
Report Wrong Elevation
Raw Report
KPUB 241753Z 04016G22KT 10SM OVC046 07/M01 A3038 RMK AO2 PK WND
05026/1659 SLP268 60001 T00721011 10072 20050 50010=

Extra information for KPUB:More info

Metar Taf Metar & Taf Last 4 Metars F.Rules Stats Wind Profile Meteogram Temp Stats Airport Information Weather charts Add Link Nearby VenuesMetar ALERT Operation Metar Decoded Social comments

AIRNAV info for KPUB